AirNav   Air Wisconsin Up To $57,000 Bonus
 
 1027 users online  

IL86 Krohe Airport
Beardstown, Illinois, USA

GOING TO BEARDSTOWN?


FAA INFORMATION EFFECTIVE 01 DECEMBER 2022

Location

FAA Identifier: IL86
Lat/Long: 39-56-10.1720N 090-28-00.4510W
39-56.169533N 090-28.007517W
39.9361589,-90.4667919
(estimated)
Elevation: 450 ft. / 137 m (estimated)
Variation: 02E (1985)
From city: 5 miles SW of BEARDSTOWN, IL
Time zone: UTC -6 (UTC -5 during Daylight Saving Time)
Zip code: 62618

Airport Operations

Airport use: Private use. Permission required prior to landing
Activation date: 06/1969
Control tower: no
ARTCC: KANSAS CITY CENTER
FSS: SAINT LOUIS FLIGHT SERVICE STATION
Attendance: UNATNDD
Wind indicator: no
Segmented circle: no

Airport Communications

WX AWOS-3 at IJX (14 nm SE): 120.525 (217-243-6379)
WX AWOS-3PT at I63 (16 nm W): 118.325 (217-773-4082)

Nearby radio navigation aids

VOR radial/distance  VOR name  Freq  Var
SPIr280/36.8SPINNER VORTAC112.7001W
UINr077/37.8QUINCY VORTAC113.6005E

 
NDB name  Hdg/Dist  Freq  Var  ID
MACOMB172/35.225101EJZY .--- --.. -.--

Airport Services

Airframe service: NONE
Powerplant service: NONE

Runway Information

Runway E/W

Dimensions: 2500 x 50 ft. / 762 x 15 m
Surface: turf
RUNWAY E  RUNWAY W
Traffic pattern: leftleft
Obstructions: nonepline

Airport Ownership and Management from official FAA records

Ownership: Privately-owned
Owner: MARVIN KROHE
7221 US HWY 67
BEARDSTOWN, IL 62618
Phone 217-323-2366
Manager: MARVIN KROHE
7221 US HWY 67
BEARDSTOWN, IL 62618
Phone 217-323-2366

Airport Operational Statistics

Aircraft based on the field: 1
Single engine airplanes: 1
    

Additional Remarks

FOR CD CTC KANSAS CITY ARTCC AT 913-254-8508.

Instrument Procedures

There are no published instrument procedures at IL86.

Some nearby airports with instrument procedures:

KIJX - Jacksonville Municipal Airport (14 nm SE)
I63 - Mount Sterling Municipal Airport (16 nm W)
KPPQ - Pittsfield Penstone Municipal Airport (23 nm SW)
KUIN - Quincy Regional Airport-Baldwin Field (33 nm W)
KMQB - Macomb Municipal Airport (36 nm N)
 
Loc | Ops | Rwys | IFR | FBO | Links
Com | Nav | Svcs | Stats | Notes
Area around IL86 (Krohe Airport)
 
Road maps at: MapQuest Bing Google
 
Aerial photo
No photo
 
Sectional chart

 
Airport distance calculator
Flying to Krohe Airport? Find the distance to fly.

From to IL86

Sunrise and sunset
Times for 04-Dec-2022
 Local
(UTC-6)
 Zulu
(UTC)
Morning civil twilight06:3812:38
Sunrise07:0813:08
Sunset16:3622:36
Evening civil twilight17:0623:06

Current date and time
Zulu (UTC)  05-Dec-2022 00:29:51
Local (UTC-6)  04-Dec-2022 18:29:51
 
METAR
KIJX 
15nm SE 
050015Z AUTO 17007KT 10SM CLR 01/M07 A3011 RMK AO2 T00091073
KI63 
16nm W 
050015Z AUTO 18008KT 10SM CLR 00/M07 A3008 RMK AO2 T10021075
KPPQ 
23nm SW 
050015Z AUTO 00000KT 10SM CLR 01/M06 A3011 RMK AO2 T00091065
TAF
KUIN 
34nm W 
041739Z 0418/0518 22011KT P6SM SKC FM051100 18007KT P6SM SCT110 FM051500 19008KT P6SM BKN045
KSPI 
36nm E 
042302Z 0423/0518 18007KT P6SM SCT250 FM050700 17006KT P6SM SCT120 BKN200 FM051300 18009KT P6SM BKN120
NOTAMs
Click for the latest NOTAMs
NOTAMs are issued by the DoD/FAA and will open in a separate window not controlled by AirNav.

 

 
 

Would you like to see your business listed on this page?

 If your business provides an interesting product or service to pilots, flight crews, aircraft, or users of the Krohe Airport, you should consider listing it here.  To start the listing process, click on the button below
 
Add a business
 

Other Pages about Krohe Airport

Update a link
 
Copyright © AirNav, LLC. All rights reserved. Privacy Policy  Contact